sensor_id;sensor_type;location;lat;lon;timestamp;P1;durP1;ratioP1;P2;durP2;ratioP2
21848;SDS011;11089;49.852;19.700;2022-09-01T00:02:38;7.32;;;3.10;;
21848;SDS011;11089;49.852;19.700;2022-09-01T00:05:39;4.40;;;2.30;;
21848;SDS011;11089;49.852;19.700;2022-09-01T00:08:40;4.55;;;3.10;;
21848;SDS011;11089;49.852;19.700;2022-09-01T00:11:42;5.00;;;2.78;;
21848;SDS011;11089;49.852;19.700;2022-09-01T00:14:44;4.22;;;2.85;;
21848;SDS011;11089;49.852;19.700;2022-09-01T00:17:45;6.60;;;2.70;;
21848;SDS011;11089;49.852;19.700;2022-09-01T00:20:46;5.95;;;3.28;;
21848;SDS011;11089;49.852;19.700;2022-09-01T00:23:47;3.75;;;2.72;;
21848;SDS011;11089;49.852;19.700;2022-09-01T00:26:48;4.57;;;2.80;;
21848;SDS011;11089;49.852;19.700;2022-09-01T00:29:49;3.63;;;2.50;;
21848;SDS011;11089;49.852;19.700;2022-09-01T00:32:50;7.00;;;2.88;;
21848;SDS011;11089;49.852;19.700;2022-09-01T00:35:51;4.97;;;2.78;;
21848;SDS011;11089;49.852;19.700;2022-09-01T00:38:52;3.78;;;2.40;;
21848;SDS011;11089;49.852;19.700;2022-09-01T00:41:54;5.78;;;2.40;;
21848;SDS011;11089;49.852;19.700;2022-09-01T00:44:54;3.35;;;2.22;;
21848;SDS011;11089;49.852;19.700;2022-09-01T00:47:55;4.78;;;2.47;;
21848;SDS011;11089;49.852;19.700;2022-09-01T00:50:56;4.53;;;2.25;;
21848;SDS011;11089;49.852;19.700;2022-09-01T00:53:58;5.53;;;3.10;;
21848;SDS011;11089;49.852;19.700;2022-09-01T00:57:01;3.95;;;2.47;;
21848;SDS011;11089;49.852;19.700;2022-09-01T01:00:06;5.03;;;2.40;;
21848;SDS011;11089;49.852;19.700;2022-09-01T01:03:21;5.85;;;2.50;;
21848;SDS011;11089;49.852;19.700;2022-09-01T01:06:23;5.05;;;2.25;;
21848;SDS011;11089;49.852;19.700;2022-09-01T01:09:28;4.47;;;3.03;;
21848;SDS011;11089;49.852;19.700;2022-09-01T01:12:32;4.03;;;2.13;;
21848;SDS011;11089;49.852;19.700;2022-09-01T01:15:37;6.72;;;2.42;;
21848;SDS011;11089;49.852;19.700;2022-09-01T01:18:38;5.35;;;2.42;;
21848;SDS011;11089;49.852;19.700;2022-09-01T01:21:40;5.40;;;2.25;;
21848;SDS011;11089;49.852;19.700;2022-09-01T01:24:57;5.18;;;2.53;;
21848;SDS011;11089;49.852;19.700;2022-09-01T01:28:34;4.38;;;2.40;;
21848;SDS011;11089;49.852;19.700;2022-09-01T01:31:31;4.20;;;2.05;;
21848;SDS011;11089;49.852;19.700;2022-09-01T01:34:32;3.28;;;2.30;;
21848;SDS011;11089;49.852;19.700;2022-09-01T01:37:33;4.03;;;2.25;;
21848;SDS011;11089;49.852;19.700;2022-09-01T01:40:35;5.70;;;2.30;;
21848;SDS011;11089;49.852;19.700;2022-09-01T01:43:37;5.18;;;2.80;;
21848;SDS011;11089;49.852;19.700;2022-09-01T01:46:42;5.45;;;2.20;;
21848;SDS011;11089;49.852;19.700;2022-09-01T01:49:49;4.00;;;2.10;;
21848;SDS011;11089;49.852;19.700;2022-09-01T01:52:51;4.38;;;2.22;;
21848;SDS011;11089;49.852;19.700;2022-09-01T01:55:53;5.25;;;2.33;;
21848;SDS011;11089;49.852;19.700;2022-09-01T01:58:57;5.38;;;2.40;;
21848;SDS011;11089;49.852;19.700;2022-09-01T02:02:01;3.33;;;2.20;;
21848;SDS011;11089;49.852;19.700;2022-09-01T02:05:03;3.63;;;2.30;;
21848;SDS011;11089;49.852;19.700;2022-09-01T02:08:06;4.57;;;2.50;;
21848;SDS011;11089;49.852;19.700;2022-09-01T02:11:08;6.63;;;2.70;;
21848;SDS011;11089;49.852;19.700;2022-09-01T02:14:11;6.10;;;3.30;;
21848;SDS011;11089;49.852;19.700;2022-09-01T02:17:12;5.45;;;2.97;;
21848;SDS011;11089;49.852;19.700;2022-09-01T02:20:13;9.07;;;3.35;;
21848;SDS011;11089;49.852;19.700;2022-09-01T02:23:16;4.40;;;2.78;;
21848;SDS011;11089;49.852;19.700;2022-09-01T02:26:22;4.20;;;2.53;;
21848;SDS011;11089;49.852;19.700;2022-09-01T02:29:27;4.50;;;2.40;;
21848;SDS011;11089;49.852;19.700;2022-09-01T02:32:29;6.78;;;2.50;;
21848;SDS011;11089;49.852;19.700;2022-09-01T02:35:30;7.07;;;2.72;;
21848;SDS011;11089;49.852;19.700;2022-09-01T02:38:33;5.32;;;2.65;;
21848;SDS011;11089;49.852;19.700;2022-09-01T02:41:35;4.80;;;2.80;;
21848;SDS011;11089;49.852;19.700;2022-09-01T02:44:36;6.70;;;2.90;;
21848;SDS011;11089;49.852;19.700;2022-09-01T02:47:39;5.35;;;2.50;;
21848;SDS011;11089;49.852;19.700;2022-09-01T02:50:41;6.10;;;2.58;;
21848;SDS011;11089;49.852;19.700;2022-09-01T02:53:43;5.65;;;2.75;;
21848;SDS011;11089;49.852;19.700;2022-09-01T02:56:49;6.00;;;2.78;;
21848;SDS011;11089;49.852;19.700;2022-09-01T02:59:53;5.25;;;2.33;;
21848;SDS011;11089;49.852;19.700;2022-09-01T03:02:58;4.47;;;2.50;;
21848;SDS011;11089;49.852;19.700;2022-09-01T03:06:00;4.22;;;2.65;;
21848;SDS011;11089;49.852;19.700;2022-09-01T03:09:02;9.00;;;2.90;;
21848;SDS011;11089;49.852;19.700;2022-09-01T03:12:05;5.80;;;2.80;;
21848;SDS011;11089;49.852;19.700;2022-09-01T03:15:06;6.38;;;2.50;;
21848;SDS011;11089;49.852;19.700;2022-09-01T03:18:08;3.90;;;2.75;;
21848;SDS011;11089;49.852;19.700;2022-09-01T03:21:10;5.82;;;2.95;;
21848;SDS011;11089;49.852;19.700;2022-09-01T03:24:16;5.07;;;3.10;;
21848;SDS011;11089;49.852;19.700;2022-09-01T03:27:18;5.75;;;2.95;;
21848;SDS011;11089;49.852;19.700;2022-09-01T03:30:19;5.22;;;2.92;;
21848;SDS011;11089;49.852;19.700;2022-09-01T03:33:21;6.32;;;2.47;;
21848;SDS011;11089;49.852;19.700;2022-09-01T03:36:24;4.60;;;3.08;;
21848;SDS011;11089;49.852;19.700;2022-09-01T03:39:30;4.65;;;2.72;;
21848;SDS011;11089;49.852;19.700;2022-09-01T03:42:31;5.03;;;3.00;;
21848;SDS011;11089;49.852;19.700;2022-09-01T03:45:32;5.70;;;2.75;;
21848;SDS011;11089;49.852;19.700;2022-09-01T03:48:37;6.25;;;3.22;;
21848;SDS011;11089;49.852;19.700;2022-09-01T03:51:38;6.20;;;3.03;;
21848;SDS011;11089;49.852;19.700;2022-09-01T03:54:40;4.15;;;2.58;;
21848;SDS011;11089;49.852;19.700;2022-09-01T03:57:42;4.82;;;2.90;;
21848;SDS011;11089;49.852;19.700;2022-09-01T04:00:44;5.05;;;3.05;;
21848;SDS011;11089;49.852;19.700;2022-09-01T04:03:48;4.68;;;2.65;;
21848;SDS011;11089;49.852;19.700;2022-09-01T04:06:52;4.28;;;3.03;;
21848;SDS011;11089;49.852;19.700;2022-09-01T04:09:52;7.78;;;2.92;;
21848;SDS011;11089;49.852;19.700;2022-09-01T04:12:54;4.95;;;3.10;;
21848;SDS011;11089;49.852;19.700;2022-09-01T04:15:58;7.28;;;3.17;;
21848;SDS011;11089;49.852;19.700;2022-09-01T04:18:59;5.60;;;2.72;;
21848;SDS011;11089;49.852;19.700;2022-09-01T04:22:00;4.03;;;2.83;;
21848;SDS011;11089;49.852;19.700;2022-09-01T04:25:01;4.82;;;2.72;;
21848;SDS011;11089;49.852;19.700;2022-09-01T04:28:02;6.30;;;2.83;;
21848;SDS011;11089;49.852;19.700;2022-09-01T04:31:13;6.57;;;3.15;;
21848;SDS011;11089;49.852;19.700;2022-09-01T04:34:20;6.00;;;3.10;;
21848;SDS011;11089;49.852;19.700;2022-09-01T04:37:21;5.57;;;2.83;;
21848;SDS011;11089;49.852;19.700;2022-09-01T04:40:22;4.05;;;2.50;;
21848;SDS011;11089;49.852;19.700;2022-09-01T04:43:23;7.72;;;3.20;;
21848;SDS011;11089;49.852;19.700;2022-09-01T04:46:25;5.45;;;3.17;;
21848;SDS011;11089;49.852;19.700;2022-09-01T04:49:30;6.00;;;3.30;;
21848;SDS011;11089;49.852;19.700;2022-09-01T04:52:32;6.28;;;3.58;;
21848;SDS011;11089;49.852;19.700;2022-09-01T04:55:34;7.10;;;3.33;;
21848;SDS011;11089;49.852;19.700;2022-09-01T04:58:39;6.93;;;2.90;;
21848;SDS011;11089;49.852;19.700;2022-09-01T05:01:40;5.53;;;2.97;;
21848;SDS011;11089;49.852;19.700;2022-09-01T05:04:44;4.68;;;3.10;;
21848;SDS011;11089;49.852;19.700;2022-09-01T05:07:45;4.25;;;2.80;;
21848;SDS011;11089;49.852;19.700;2022-09-01T05:10:52;4.68;;;2.67;;
21848;SDS011;11089;49.852;19.700;2022-09-01T05:13:55;5.85;;;2.95;;
21848;SDS011;11089;49.852;19.700;2022-09-01T05:16:57;5.55;;;3.00;;
21848;SDS011;11089;49.852;19.700;2022-09-01T05:19:58;6.60;;;2.88;;
21848;SDS011;11089;49.852;19.700;2022-09-01T05:23:00;6.18;;;2.90;;
21848;SDS011;11089;49.852;19.700;2022-09-01T05:26:01;4.55;;;2.80;;
21848;SDS011;11089;49.852;19.700;2022-09-01T05:29:05;6.32;;;3.22;;
21848;SDS011;11089;49.852;19.700;2022-09-01T05:32:12;7.20;;;3.17;;
21848;SDS011;11089;49.852;19.700;2022-09-01T05:35:13;4.30;;;3.17;;
21848;SDS011;11089;49.852;19.700;2022-09-01T05:38:14;4.07;;;2.70;;
21848;SDS011;11089;49.852;19.700;2022-09-01T05:41:16;6.18;;;3.50;;
21848;SDS011;11089;49.852;19.700;2022-09-01T05:44:19;7.18;;;4.72;;
21848;SDS011;11089;49.852;19.700;2022-09-01T05:47:24;8.60;;;5.18;;
21848;SDS011;11089;49.852;19.700;2022-09-01T05:50:25;12.77;;;8.02;;
21848;SDS011;11089;49.852;19.700;2022-09-01T05:53:28;11.25;;;5.97;;
21848;SDS011;11089;49.852;19.700;2022-09-01T05:56:30;16.00;;;9.13;;
21848;SDS011;11089;49.852;19.700;2022-09-01T05:59:31;17.77;;;10.25;;
21848;SDS011;11089;49.852;19.700;2022-09-01T06:02:32;25.63;;;14.15;;
21848;SDS011;11089;49.852;19.700;2022-09-01T06:05:34;28.75;;;14.82;;
21848;SDS011;11089;49.852;19.700;2022-09-01T06:08:36;32.00;;;17.35;;
21848;SDS011;11089;49.852;19.700;2022-09-01T06:11:38;20.25;;;11.27;;
21848;SDS011;11089;49.852;19.700;2022-09-01T06:14:40;16.80;;;8.43;;
21848;SDS011;11089;49.852;19.700;2022-09-01T06:17:41;18.30;;;9.70;;
21848;SDS011;11089;49.852;19.700;2022-09-01T06:20:44;11.52;;;7.35;;
21848;SDS011;11089;49.852;19.700;2022-09-01T06:23:47;16.33;;;7.90;;
21848;SDS011;11089;49.852;19.700;2022-09-01T06:26:54;13.35;;;7.55;;
21848;SDS011;11089;49.852;19.700;2022-09-01T06:29:55;9.38;;;5.72;;
21848;SDS011;11089;49.852;19.700;2022-09-01T06:32:57;9.55;;;5.15;;
21848;SDS011;11089;49.852;19.700;2022-09-01T06:36:00;11.45;;;5.13;;
21848;SDS011;11089;49.852;19.700;2022-09-01T06:39:05;7.60;;;4.00;;
21848;SDS011;11089;49.852;19.700;2022-09-01T06:42:07;6.90;;;3.45;;
21848;SDS011;11089;49.852;19.700;2022-09-01T06:45:10;7.82;;;3.33;;
21848;SDS011;11089;49.852;19.700;2022-09-01T06:48:11;6.00;;;2.97;;
21848;SDS011;11089;49.852;19.700;2022-09-01T06:51:16;6.55;;;3.20;;
21848;SDS011;11089;49.852;19.700;2022-09-01T06:54:19;7.32;;;2.70;;
21848;SDS011;11089;49.852;19.700;2022-09-01T06:57:20;6.75;;;3.20;;
21848;SDS011;11089;49.852;19.700;2022-09-01T07:00:21;4.85;;;3.28;;
21848;SDS011;11089;49.852;19.700;2022-09-01T07:03:23;5.38;;;3.10;;
21848;SDS011;11089;49.852;19.700;2022-09-01T07:06:25;6.35;;;3.33;;
21848;SDS011;11089;49.852;19.700;2022-09-01T07:09:26;6.68;;;3.00;;
21848;SDS011;11089;49.852;19.700;2022-09-01T07:12:28;4.18;;;3.05;;
21848;SDS011;11089;49.852;19.700;2022-09-01T07:15:30;4.00;;;2.83;;
21848;SDS011;11089;49.852;19.700;2022-09-01T07:18:31;5.45;;;3.13;;
21848;SDS011;11089;49.852;19.700;2022-09-01T07:21:32;4.65;;;2.60;;
21848;SDS011;11089;49.852;19.700;2022-09-01T07:24:33;5.55;;;2.88;;
21848;SDS011;11089;49.852;19.700;2022-09-01T07:27:35;5.20;;;2.80;;
21848;SDS011;11089;49.852;19.700;2022-09-01T07:30:40;6.05;;;2.70;;
21848;SDS011;11089;49.852;19.700;2022-09-01T07:33:42;3.85;;;2.92;;
21848;SDS011;11089;49.852;19.700;2022-09-01T07:36:47;4.63;;;3.00;;
21848;SDS011;11089;49.852;19.700;2022-09-01T07:39:49;3.80;;;2.45;;
21848;SDS011;11089;49.852;19.700;2022-09-01T07:42:53;7.18;;;3.30;;
21848;SDS011;11089;49.852;19.700;2022-09-01T07:45:56;5.75;;;2.80;;
21848;SDS011;11089;49.852;19.700;2022-09-01T07:48:58;4.72;;;2.20;;
21848;SDS011;11089;49.852;19.700;2022-09-01T07:52:01;6.35;;;2.50;;
21848;SDS011;11089;49.852;19.700;2022-09-01T07:55:04;4.15;;;2.50;;
21848;SDS011;11089;49.852;19.700;2022-09-01T07:58:07;6.65;;;2.55;;
21848;SDS011;11089;49.852;19.700;2022-09-01T08:01:13;6.05;;;2.40;;
21848;SDS011;11089;49.852;19.700;2022-09-01T08:04:17;3.55;;;2.45;;
21848;SDS011;11089;49.852;19.700;2022-09-01T08:07:22;3.50;;;2.35;;
21848;SDS011;11089;49.852;19.700;2022-09-01T08:10:22;3.70;;;2.15;;
21848;SDS011;11089;49.852;19.700;2022-09-01T08:13:23;3.05;;;2.20;;
21848;SDS011;11089;49.852;19.700;2022-09-01T08:16:25;3.45;;;1.95;;
21848;SDS011;11089;49.852;19.700;2022-09-01T08:19:28;3.35;;;2.15;;
21848;SDS011;11089;49.852;19.700;2022-09-01T08:22:30;3.40;;;1.90;;
21848;SDS011;11089;49.852;19.700;2022-09-01T08:25:32;5.10;;;2.13;;
21848;SDS011;11089;49.852;19.700;2022-09-01T08:28:36;3.67;;;2.00;;
21848;SDS011;11089;49.852;19.700;2022-09-01T08:31:40;3.90;;;1.85;;
21848;SDS011;11089;49.852;19.700;2022-09-01T08:34:41;2.15;;;1.70;;
21848;SDS011;11089;49.852;19.700;2022-09-01T08:37:42;4.32;;;1.77;;
21848;SDS011;11089;49.852;19.700;2022-09-01T08:40:49;3.13;;;1.85;;
21848;SDS011;11089;49.852;19.700;2022-09-01T08:47:10;2.80;;;1.60;;
21848;SDS011;11089;49.852;19.700;2022-09-01T08:50:13;2.97;;;1.73;;
21848;SDS011;11089;49.852;19.700;2022-09-01T08:53:19;5.35;;;2.00;;
21848;SDS011;11089;49.852;19.700;2022-09-01T08:56:27;2.67;;;1.65;;
21848;SDS011;11089;49.852;19.700;2022-09-01T08:59:28;2.45;;;1.58;;
21848;SDS011;11089;49.852;19.700;2022-09-01T09:02:32;2.42;;;1.30;;
21848;SDS011;11089;49.852;19.700;2022-09-01T09:09:13;2.85;;;1.63;;
21848;SDS011;11089;49.852;19.700;2022-09-01T09:12:22;2.63;;;1.50;;
21848;SDS011;11089;49.852;19.700;2022-09-01T09:18:55;2.88;;;1.70;;
21848;SDS011;11089;49.852;19.700;2022-09-01T09:22:00;4.22;;;1.17;;
21848;SDS011;11089;49.852;19.700;2022-09-01T09:25:07;2.88;;;1.10;;
21848;SDS011;11089;49.852;19.700;2022-09-01T09:28:14;3.15;;;1.27;;
21848;SDS011;11089;49.852;19.700;2022-09-01T09:31:28;2.30;;;1.10;;
21848;SDS011;11089;49.852;19.700;2022-09-01T09:34:43;3.40;;;1.52;;
21848;SDS011;11089;49.852;19.700;2022-09-01T09:37:43;1.88;;;1.17;;
21848;SDS011;11089;49.852;19.700;2022-09-01T09:47:35;2.10;;;1.30;;
21848;SDS011;11089;49.852;19.700;2022-09-01T09:50:39;3.10;;;1.40;;
21848;SDS011;11089;49.852;19.700;2022-09-01T09:53:43;4.35;;;1.40;;
21848;SDS011;11089;49.852;19.700;2022-09-01T09:56:44;2.97;;;0.93;;
21848;SDS011;11089;49.852;19.700;2022-09-01T09:59:47;4.80;;;1.20;;
21848;SDS011;11089;49.852;19.700;2022-09-01T10:02:56;2.72;;;1.40;;
21848;SDS011;11089;49.852;19.700;2022-09-01T10:06:01;3.58;;;1.45;;
21848;SDS011;11089;49.852;19.700;2022-09-01T10:09:13;2.17;;;1.02;;
21848;SDS011;11089;49.852;19.700;2022-09-01T10:12:16;3.65;;;1.30;;
21848;SDS011;11089;49.852;19.700;2022-09-01T10:15:19;1.90;;;1.10;;
21848;SDS011;11089;49.852;19.700;2022-09-01T10:18:24;2.70;;;1.20;;
21848;SDS011;11089;49.852;19.700;2022-09-01T10:21:36;4.28;;;1.13;;
21848;SDS011;11089;49.852;19.700;2022-09-01T10:24:39;1.50;;;1.02;;
21848;SDS011;11089;49.852;19.700;2022-09-01T10:27:41;2.10;;;1.00;;
21848;SDS011;11089;49.852;19.700;2022-09-01T10:30:46;2.85;;;1.15;;
21848;SDS011;11089;49.852;19.700;2022-09-01T10:33:48;2.78;;;0.90;;
21848;SDS011;11089;49.852;19.700;2022-09-01T10:36:50;4.45;;;1.30;;
21848;SDS011;11089;49.852;19.700;2022-09-01T10:40:34;1.45;;;0.90;;
21848;SDS011;11089;49.852;19.700;2022-09-01T10:43:35;0.80;;;0.80;;
21848;SDS011;11089;49.852;19.700;2022-09-01T10:46:42;2.33;;;1.25;;
21848;SDS011;11089;49.852;19.700;2022-09-01T10:55:47;1.52;;;0.90;;
21848;SDS011;11089;49.852;19.700;2022-09-01T10:59:35;1.38;;;0.85;;
21848;SDS011;11089;49.852;19.700;2022-09-01T11:02:30;3.13;;;1.20;;
21848;SDS011;11089;49.852;19.700;2022-09-01T11:08:57;1.08;;;0.80;;
21848;SDS011;11089;49.852;19.700;2022-09-01T11:18:16;2.70;;;0.80;;
21848;SDS011;11089;49.852;19.700;2022-09-01T11:21:27;1.95;;;0.88;;
21848;SDS011;11089;49.852;19.700;2022-09-01T11:34:23;1.70;;;0.80;;
21848;SDS011;11089;49.852;19.700;2022-09-01T11:37:26;1.10;;;1.00;;
21848;SDS011;11089;49.852;19.700;2022-09-01T11:40:28;0.98;;;0.90;;
21848;SDS011;11089;49.852;19.700;2022-09-01T11:43:31;2.35;;;0.90;;
21848;SDS011;11089;49.852;19.700;2022-09-01T11:46:33;2.05;;;1.05;;
21848;SDS011;11089;49.852;19.700;2022-09-01T11:49:38;1.92;;;1.00;;
21848;SDS011;11089;49.852;19.700;2022-09-01T11:56:11;1.08;;;0.80;;
21848;SDS011;11089;49.852;19.700;2022-09-01T11:59:28;2.05;;;0.88;;
21848;SDS011;11089;49.852;19.700;2022-09-01T12:02:32;3.05;;;0.70;;
21848;SDS011;11089;49.852;19.700;2022-09-01T12:05:35;1.40;;;0.90;;
21848;SDS011;11089;49.852;19.700;2022-09-01T12:08:41;2.55;;;0.90;;
21848;SDS011;11089;49.852;19.700;2022-09-01T12:11:49;1.48;;;0.85;;
21848;SDS011;11089;49.852;19.700;2022-09-01T12:14:58;1.27;;;0.90;;
21848;SDS011;11089;49.852;19.700;2022-09-01T12:18:11;1.25;;;0.80;;
21848;SDS011;11089;49.852;19.700;2022-09-01T12:21:20;1.58;;;1.20;;
21848;SDS011;11089;49.852;19.700;2022-09-01T12:24:22;2.55;;;0.82;;
21848;SDS011;11089;49.852;19.700;2022-09-01T12:27:24;2.55;;;0.90;;
21848;SDS011;11089;49.852;19.700;2022-09-01T12:30:25;4.57;;;1.05;;
21848;SDS011;11089;49.852;19.700;2022-09-01T12:33:26;2.25;;;0.80;;
21848;SDS011;11089;49.852;19.700;2022-09-01T12:36:32;0.68;;;0.68;;
21848;SDS011;11089;49.852;19.700;2022-09-01T12:39:35;1.55;;;0.75;;
21848;SDS011;11089;49.852;19.700;2022-09-01T12:42:48;1.95;;;0.90;;
21848;SDS011;11089;49.852;19.700;2022-09-01T12:45:50;4.32;;;1.27;;
21848;SDS011;11089;49.852;19.700;2022-09-01T12:48:52;1.20;;;0.70;;
21848;SDS011;11089;49.852;19.700;2022-09-01T12:55:25;2.78;;;0.90;;
21848;SDS011;11089;49.852;19.700;2022-09-01T12:58:28;4.28;;;0.90;;
21848;SDS011;11089;49.852;19.700;2022-09-01T13:01:31;3.28;;;0.80;;
21848;SDS011;11089;49.852;19.700;2022-09-01T13:04:34;3.92;;;0.88;;
21848;SDS011;11089;49.852;19.700;2022-09-01T13:07:35;3.17;;;0.82;;
21848;SDS011;11089;49.852;19.700;2022-09-01T13:10:40;2.97;;;0.98;;
21848;SDS011;11089;49.852;19.700;2022-09-01T13:13:45;1.45;;;0.80;;
21848;SDS011;11089;49.852;19.700;2022-09-01T13:16:46;1.60;;;0.90;;
21848;SDS011;11089;49.852;19.700;2022-09-01T13:19:47;3.00;;;1.05;;
21848;SDS011;11089;49.852;19.700;2022-09-01T13:22:48;2.00;;;0.90;;
21848;SDS011;11089;49.852;19.700;2022-09-01T13:25:49;1.10;;;0.80;;
21848;SDS011;11089;49.852;19.700;2022-09-01T13:28:51;1.67;;;0.80;;
21848;SDS011;11089;49.852;19.700;2022-09-01T13:31:52;0.98;;;0.80;;
21848;SDS011;11089;49.852;19.700;2022-09-01T13:34:53;1.65;;;0.90;;
21848;SDS011;11089;49.852;19.700;2022-09-01T13:37:54;1.73;;;0.80;;
21848;SDS011;11089;49.852;19.700;2022-09-01T13:40:55;2.38;;;0.90;;
21848;SDS011;11089;49.852;19.700;2022-09-01T13:43:57;2.85;;;0.80;;
21848;SDS011;11089;49.852;19.700;2022-09-01T13:46:58;0.93;;;0.65;;
21848;SDS011;11089;49.852;19.700;2022-09-01T13:49:59;2.05;;;0.80;;
21848;SDS011;11089;49.852;19.700;2022-09-01T13:53:00;1.92;;;0.98;;
21848;SDS011;11089;49.852;19.700;2022-09-01T13:56:01;0.77;;;0.70;;
21848;SDS011;11089;49.852;19.700;2022-09-01T13:59:02;2.70;;;0.70;;
21848;SDS011;11089;49.852;19.700;2022-09-01T14:02:03;3.60;;;1.10;;
21848;SDS011;11089;49.852;19.700;2022-09-01T14:05:05;1.48;;;0.98;;
21848;SDS011;11089;49.852;19.700;2022-09-01T14:08:07;2.45;;;0.70;;
21848;SDS011;11089;49.852;19.700;2022-09-01T14:11:14;1.50;;;0.70;;
21848;SDS011;11089;49.852;19.700;2022-09-01T14:14:17;4.93;;;1.10;;
21848;SDS011;11089;49.852;19.700;2022-09-01T14:17:18;2.00;;;0.70;;
21848;SDS011;11089;49.852;19.700;2022-09-01T14:20:19;0.70;;;0.70;;
21848;SDS011;11089;49.852;19.700;2022-09-01T14:23:26;2.33;;;0.98;;
21848;SDS011;11089;49.852;19.700;2022-09-01T14:26:27;1.75;;;0.80;;
21848;SDS011;11089;49.852;19.700;2022-09-01T14:29:28;1.42;;;0.82;;
21848;SDS011;11089;49.852;19.700;2022-09-01T14:32:29;2.00;;;1.02;;
21848;SDS011;11089;49.852;19.700;2022-09-01T14:35:30;1.67;;;0.80;;
21848;SDS011;11089;49.852;19.700;2022-09-01T14:38:33;2.67;;;0.73;;
21848;SDS011;11089;49.852;19.700;2022-09-01T14:41:34;2.05;;;0.70;;
21848;SDS011;11089;49.852;19.700;2022-09-01T14:44:36;1.75;;;0.73;;
21848;SDS011;11089;49.852;19.700;2022-09-01T14:47:37;3.30;;;0.80;;
21848;SDS011;11089;49.852;19.700;2022-09-01T14:50:39;1.70;;;0.60;;
21848;SDS011;11089;49.852;19.700;2022-09-01T14:53:41;1.52;;;0.85;;
21848;SDS011;11089;49.852;19.700;2022-09-01T14:56:42;1.05;;;0.60;;
21848;SDS011;11089;49.852;19.700;2022-09-01T14:59:43;0.70;;;0.70;;
21848;SDS011;11089;49.852;19.700;2022-09-01T15:02:44;2.50;;;0.80;;
21848;SDS011;11089;49.852;19.700;2022-09-01T15:05:45;3.40;;;0.90;;
21848;SDS011;11089;49.852;19.700;2022-09-01T15:08:47;0.82;;;0.70;;
21848;SDS011;11089;49.852;19.700;2022-09-01T15:11:48;1.33;;;0.77;;
21848;SDS011;11089;49.852;19.700;2022-09-01T15:14:49;1.80;;;0.60;;
21848;SDS011;11089;49.852;19.700;2022-09-01T15:17:50;1.10;;;0.75;;
21848;SDS011;11089;49.852;19.700;2022-09-01T15:20:52;2.47;;;0.85;;
21848;SDS011;11089;49.852;19.700;2022-09-01T15:23:54;1.30;;;1.02;;
21848;SDS011;11089;49.852;19.700;2022-09-01T15:26:55;0.80;;;0.70;;
21848;SDS011;11089;49.852;19.700;2022-09-01T15:29:56;2.35;;;0.70;;
21848;SDS011;11089;49.852;19.700;2022-09-01T15:32:57;3.63;;;0.65;;
21848;SDS011;11089;49.852;19.700;2022-09-01T15:35:58;2.08;;;1.20;;
21848;SDS011;11089;49.852;19.700;2022-09-01T15:38:59;1.60;;;1.35;;
21848;SDS011;11089;49.852;19.700;2022-09-01T15:42:00;7.95;;;2.65;;
21848;SDS011;11089;49.852;19.700;2022-09-01T15:45:03;6.47;;;3.08;;
21848;SDS011;11089;49.852;19.700;2022-09-01T15:48:06;4.00;;;1.50;;
21848;SDS011;11089;49.852;19.700;2022-09-01T15:54:22;4.32;;;1.35;;
21848;SDS011;11089;49.852;19.700;2022-09-01T15:57:24;9.25;;;3.75;;
21848;SDS011;11089;49.852;19.700;2022-09-01T16:00:27;8.80;;;3.25;;
21848;SDS011;11089;49.852;19.700;2022-09-01T16:03:29;11.52;;;4.70;;
21848;SDS011;11089;49.852;19.700;2022-09-01T16:06:31;29.55;;;10.40;;
21848;SDS011;11089;49.852;19.700;2022-09-01T16:09:32;30.42;;;10.88;;
21848;SDS011;11089;49.852;19.700;2022-09-01T16:12:33;53.55;;;19.67;;
21848;SDS011;11089;49.852;19.700;2022-09-01T16:15:35;74.30;;;28.13;;
21848;SDS011;11089;49.852;19.700;2022-09-01T16:18:49;63.95;;;25.08;;
21848;SDS011;11089;49.852;19.700;2022-09-01T16:25:23;5.38;;;2.75;;
21848;SDS011;11089;49.852;19.700;2022-09-01T16:28:30;3.97;;;2.10;;
21848;SDS011;11089;49.852;19.700;2022-09-01T16:31:36;3.95;;;1.60;;
21848;SDS011;11089;49.852;19.700;2022-09-01T16:34:38;3.45;;;1.50;;
21848;SDS011;11089;49.852;19.700;2022-09-01T16:37:52;4.22;;;1.70;;
21848;SDS011;11089;49.852;19.700;2022-09-01T16:41:01;2.72;;;1.60;;
21848;SDS011;11089;49.852;19.700;2022-09-01T16:58:02;4.78;;;1.95;;
21848;SDS011;11089;49.852;19.700;2022-09-01T17:11:10;5.68;;;2.10;;
21848;SDS011;11089;49.852;19.700;2022-09-01T17:14:41;3.63;;;1.75;;
21848;SDS011;11089;49.852;19.700;2022-09-01T17:18:11;6.88;;;2.22;;
21848;SDS011;11089;49.852;19.700;2022-09-01T17:21:33;3.67;;;1.95;;
21848;SDS011;11089;49.852;19.700;2022-09-01T17:24:45;7.47;;;2.30;;
21848;SDS011;11089;49.852;19.700;2022-09-01T17:27:55;5.38;;;2.55;;
21848;SDS011;11089;49.852;19.700;2022-09-01T17:31:11;4.35;;;2.15;;
21848;SDS011;11089;49.852;19.700;2022-09-01T17:43:48;15.88;;;4.28;;
21848;SDS011;11089;49.852;19.700;2022-09-01T17:53:56;11.63;;;3.65;;
21848;SDS011;11089;49.852;19.700;2022-09-01T18:00:32;3.83;;;1.80;;
21848;SDS011;11089;49.852;19.700;2022-09-01T18:07:08;4.78;;;1.58;;
21848;SDS011;11089;49.852;19.700;2022-09-01T18:10:14;4.45;;;1.63;;
21848;SDS011;11089;49.852;19.700;2022-09-01T18:16:55;4.72;;;1.73;;
21848;SDS011;11089;49.852;19.700;2022-09-01T18:20:25;4.07;;;1.90;;
21848;SDS011;11089;49.852;19.700;2022-09-01T18:23:31;5.72;;;1.77;;
21848;SDS011;11089;49.852;19.700;2022-09-01T18:26:37;6.22;;;1.90;;
21848;SDS011;11089;49.852;19.700;2022-09-01T18:29:42;4.18;;;2.17;;
21848;SDS011;11089;49.852;19.700;2022-09-01T18:39:26;5.32;;;2.40;;
21848;SDS011;11089;49.852;19.700;2022-09-01T18:45:42;4.82;;;2.28;;
21848;SDS011;11089;49.852;19.700;2022-09-01T18:52:10;5.22;;;2.13;;
21848;SDS011;11089;49.852;19.700;2022-09-01T19:08:46;4.32;;;2.10;;
21848;SDS011;11089;49.852;19.700;2022-09-01T19:18:38;5.95;;;1.73;;
21848;SDS011;11089;49.852;19.700;2022-09-01T19:21:40;4.07;;;1.77;;
21848;SDS011;11089;49.852;19.700;2022-09-01T19:24:48;6.20;;;1.85;;
21848;SDS011;11089;49.852;19.700;2022-09-01T19:27:57;3.50;;;1.80;;
21848;SDS011;11089;49.852;19.700;2022-09-01T19:34:24;5.13;;;2.25;;
21848;SDS011;11089;49.852;19.700;2022-09-01T19:37:29;3.80;;;1.95;;
21848;SDS011;11089;49.852;19.700;2022-09-01T19:40:32;5.18;;;2.30;;
21848;SDS011;11089;49.852;19.700;2022-09-01T19:43:36;7.03;;;2.88;;
21848;SDS011;11089;49.852;19.700;2022-09-01T19:46:44;4.03;;;2.20;;
21848;SDS011;11089;49.852;19.700;2022-09-01T19:50:00;4.95;;;2.10;;
21848;SDS011;11089;49.852;19.700;2022-09-01T19:53:57;6.15;;;2.08;;
21848;SDS011;11089;49.852;19.700;2022-09-01T20:00:51;3.45;;;2.25;;
21848;SDS011;11089;49.852;19.700;2022-09-01T20:03:53;3.40;;;1.92;;
21848;SDS011;11089;49.852;19.700;2022-09-01T20:07:00;3.50;;;1.92;;
21848;SDS011;11089;49.852;19.700;2022-09-01T20:16:39;4.43;;;1.77;;
21848;SDS011;11089;49.852;19.700;2022-09-01T20:22:54;5.20;;;2.10;;
21848;SDS011;11089;49.852;19.700;2022-09-01T20:26:06;4.53;;;1.73;;
21848;SDS011;11089;49.852;19.700;2022-09-01T20:29:27;3.70;;;1.55;;
21848;SDS011;11089;49.852;19.700;2022-09-01T20:32:45;3.25;;;1.85;;
21848;SDS011;11089;49.852;19.700;2022-09-01T20:46:20;9.25;;;1.77;;
21848;SDS011;11089;49.852;19.700;2022-09-01T20:49:22;4.13;;;1.80;;
21848;SDS011;11089;49.852;19.700;2022-09-01T20:55:37;3.20;;;1.60;;
21848;SDS011;11089;49.852;19.700;2022-09-01T20:58:51;3.60;;;1.63;;
21848;SDS011;11089;49.852;19.700;2022-09-01T21:02:04;3.42;;;1.73;;
21848;SDS011;11089;49.852;19.700;2022-09-01T21:08:45;2.25;;;1.38;;